sensor_id;sensor_type;location;lat;lon;timestamp;pressure;altitude;pressure_sealevel;temperature;humidity
33697;BME280;20031;43.416;23.232;2023-02-17T00:01:29;100926.03;;;1.95;79.84
33697;BME280;20031;43.416;23.232;2023-02-17T00:03:54;100922.91;;;1.90;79.37
33697;BME280;20031;43.416;23.232;2023-02-17T00:06:23;100921.22;;;1.89;79.80
33697;BME280;20031;43.416;23.232;2023-02-17T00:08:49;100924.53;;;1.91;80.10
33697;BME280;20031;43.416;23.232;2023-02-17T00:11:15;100926.19;;;1.92;79.67
33697;BME280;20031;43.416;23.232;2023-02-17T00:13:41;100927.00;;;1.93;79.55
33697;BME280;20031;43.416;23.232;2023-02-17T00:16:12;100917.59;;;1.93;80.18
33697;BME280;20031;43.416;23.232;2023-02-17T00:18:39;100925.38;;;1.92;80.00
33697;BME280;20031;43.416;23.232;2023-02-17T00:21:16;100917.25;;;1.84;79.37
33697;BME280;20031;43.416;23.232;2023-02-17T00:23:44;100920.88;;;1.80;80.05
33697;BME280;20031;43.416;23.232;2023-02-17T00:26:10;100916.19;;;1.72;79.42
33697;BME280;20031;43.416;23.232;2023-02-17T00:28:35;100919.06;;;1.66;79.67
33697;BME280;20031;43.416;23.232;2023-02-17T00:31:08;100921.97;;;1.60;79.56
33697;BME280;20031;43.416;23.232;2023-02-17T00:33:34;100919.06;;;1.51;79.70
33697;BME280;20031;43.416;23.232;2023-02-17T00:36:03;100913.34;;;1.46;79.30
33697;BME280;20031;43.416;23.232;2023-02-17T00:38:29;100908.31;;;1.45;80.16
33697;BME280;20031;43.416;23.232;2023-02-17T00:40:54;100911.94;;;1.41;79.80
33697;BME280;20031;43.416;23.232;2023-02-17T00:43:20;100896.88;;;1.35;79.81
33697;BME280;20031;43.416;23.232;2023-02-17T00:45:45;100886.75;;;1.32;80.17
33697;BME280;20031;43.416;23.232;2023-02-17T00:48:11;100892.72;;;1.32;80.12
33697;BME280;20031;43.416;23.232;2023-02-17T00:50:36;100890.25;;;1.31;80.39
33697;BME280;20031;43.416;23.232;2023-02-17T00:53:01;100889.47;;;1.29;80.18
33697;BME280;20031;43.416;23.232;2023-02-17T00:55:27;100879.38;;;1.26;79.94
33697;BME280;20031;43.416;23.232;2023-02-17T00:57:52;100886.09;;;1.28;80.50
33697;BME280;20031;43.416;23.232;2023-02-17T01:00:18;100872.38;;;1.29;80.37
33697;BME280;20031;43.416;23.232;2023-02-17T01:02:45;100864.75;;;1.28;79.97
33697;BME280;20031;43.416;23.232;2023-02-17T01:05:10;100873.19;;;1.30;80.46
33697;BME280;20031;43.416;23.232;2023-02-17T01:07:36;100870.63;;;1.30;80.67
33697;BME280;20031;43.416;23.232;2023-02-17T01:10:03;100877.56;;;1.28;80.72
33697;BME280;20031;43.416;23.232;2023-02-17T01:12:29;100868.53;;;1.21;80.20
33697;BME280;20031;43.416;23.232;2023-02-17T01:14:54;100881.63;;;1.16;80.21
33697;BME280;20031;43.416;23.232;2023-02-17T01:17:20;100870.75;;;1.11;80.06
33697;BME280;20031;43.416;23.232;2023-02-17T01:19:45;100870.84;;;1.10;80.43
33697;BME280;20031;43.416;23.232;2023-02-17T01:22:10;100864.03;;;1.09;80.46
33697;BME280;20031;43.416;23.232;2023-02-17T01:24:37;100875.31;;;1.06;80.31
33697;BME280;20031;43.416;23.232;2023-02-17T01:27:04;100862.78;;;1.00;79.93
33697;BME280;20031;43.416;23.232;2023-02-17T01:29:29;100877.66;;;0.94;79.72
33697;BME280;20031;43.416;23.232;2023-02-17T01:31:55;100861.09;;;0.84;79.50
33697;BME280;20031;43.416;23.232;2023-02-17T01:34:20;100865.53;;;0.81;79.54
33697;BME280;20031;43.416;23.232;2023-02-17T01:36:46;100865.78;;;0.76;79.55
33697;BME280;20031;43.416;23.232;2023-02-17T01:39:15;100860.66;;;0.76;80.30
33697;BME280;20031;43.416;23.232;2023-02-17T01:41:40;100858.84;;;0.78;80.35
33697;BME280;20031;43.416;23.232;2023-02-17T01:44:19;100855.53;;;0.76;79.86
33697;BME280;20031;43.416;23.232;2023-02-17T01:46:47;100858.94;;;0.77;80.04
33697;BME280;20031;43.416;23.232;2023-02-17T01:51:39;100861.34;;;0.80;80.62
33697;BME280;20031;43.416;23.232;2023-02-17T01:54:08;100859.66;;;0.79;80.29
33697;BME280;20031;43.416;23.232;2023-02-17T01:56:38;100854.47;;;0.80;80.81
33697;BME280;20031;43.416;23.232;2023-02-17T01:59:11;100853.41;;;0.84;80.17
33697;BME280;20031;43.416;23.232;2023-02-17T02:01:38;100854.31;;;0.83;80.45
33697;BME280;20031;43.416;23.232;2023-02-17T02:04:04;100854.53;;;0.79;80.14
33697;BME280;20031;43.416;23.232;2023-02-17T02:06:32;100847.03;;;0.76;80.42
33697;BME280;20031;43.416;23.232;2023-02-17T02:11:30;100844.09;;;0.66;80.58
33697;BME280;20031;43.416;23.232;2023-02-17T02:13:56;100854.03;;;0.72;81.02
33697;BME280;20031;43.416;23.232;2023-02-17T02:16:41;100851.59;;;0.69;80.32
33697;BME280;20031;43.416;23.232;2023-02-17T02:28:48;100838.47;;;0.60;80.78
33697;BME280;20031;43.416;23.232;2023-02-17T02:34:13;100841.09;;;0.58;80.91
33697;BME280;20031;43.416;23.232;2023-02-17T02:37:13;100846.06;;;0.61;81.28
33697;BME280;20031;43.416;23.232;2023-02-17T02:39:46;100845.25;;;0.61;80.62
33697;BME280;20031;43.416;23.232;2023-02-17T02:42:15;100835.03;;;0.59;80.52
33697;BME280;20031;43.416;23.232;2023-02-17T02:44:41;100849.69;;;0.57;80.97
33697;BME280;20031;43.416;23.232;2023-02-17T02:49:54;100846.38;;;0.55;80.69
33697;BME280;20031;43.416;23.232;2023-02-17T02:55:24;100833.81;;;0.51;80.10
33697;BME280;20031;43.416;23.232;2023-02-17T03:00:39;100822.63;;;0.52;80.91
33697;BME280;20031;43.416;23.232;2023-02-17T03:10:28;100831.44;;;0.47;80.23
33697;BME280;20031;43.416;23.232;2023-02-17T03:12:54;100827.91;;;0.49;80.41
33697;BME280;20031;43.416;23.232;2023-02-17T03:15:32;100828.72;;;0.49;80.05
33697;BME280;20031;43.416;23.232;2023-02-17T03:18:01;100835.50;;;0.50;80.34
33697;BME280;20031;43.416;23.232;2023-02-17T03:20:29;100822.88;;;0.48;80.35
33697;BME280;20031;43.416;23.232;2023-02-17T03:22:57;100829.66;;;0.49;80.44
33697;BME280;20031;43.416;23.232;2023-02-17T03:25:22;100838.25;;;0.48;80.45
33697;BME280;20031;43.416;23.232;2023-02-17T03:27:48;100841.94;;;0.42;80.15
33697;BME280;20031;43.416;23.232;2023-02-17T03:30:13;100842.16;;;0.38;80.63
33697;BME280;20031;43.416;23.232;2023-02-17T03:32:40;100841.94;;;0.42;80.87
33697;BME280;20031;43.416;23.232;2023-02-17T03:35:05;100853.75;;;0.45;80.82
33697;BME280;20031;43.416;23.232;2023-02-17T03:37:31;100853.75;;;0.45;80.89
33697;BME280;20031;43.416;23.232;2023-02-17T03:39:56;100859.78;;;0.44;80.64
33697;BME280;20031;43.416;23.232;2023-02-17T03:42:22;100837.84;;;0.38;80.87
33697;BME280;20031;43.416;23.232;2023-02-17T03:44:48;100853.16;;;0.40;80.44
33697;BME280;20031;43.416;23.232;2023-02-17T03:47:13;100845.78;;;0.34;80.41
33697;BME280;20031;43.416;23.232;2023-02-17T03:49:39;100851.03;;;0.31;80.34
33697;BME280;20031;43.416;23.232;2023-02-17T03:52:04;100847.44;;;0.35;80.98
33697;BME280;20031;43.416;23.232;2023-02-17T03:54:29;100861.91;;;0.36;81.14
33697;BME280;20031;43.416;23.232;2023-02-17T03:56:55;100847.34;;;0.36;81.06
33697;BME280;20031;43.416;23.232;2023-02-17T03:59:20;100857.53;;;0.38;81.12
33697;BME280;20031;43.416;23.232;2023-02-17T04:01:46;100848.94;;;0.39;81.20
33697;BME280;20031;43.416;23.232;2023-02-17T04:04:11;100847.28;;;0.38;81.05
33697;BME280;20031;43.416;23.232;2023-02-17T04:06:37;100853.91;;;0.42;81.31
33697;BME280;20031;43.416;23.232;2023-02-17T04:09:02;100840.41;;;0.38;80.85
33697;BME280;20031;43.416;23.232;2023-02-17T04:11:28;100843.97;;;0.36;81.26
33697;BME280;20031;43.416;23.232;2023-02-17T04:13:54;100846.31;;;0.40;81.69
33697;BME280;20031;43.416;23.232;2023-02-17T04:16:19;100844.50;;;0.42;80.79
33697;BME280;20031;43.416;23.232;2023-02-17T04:18:45;100836.06;;;0.40;80.79
33697;BME280;20031;43.416;23.232;2023-02-17T04:21:10;100838.84;;;0.36;80.32
33697;BME280;20031;43.416;23.232;2023-02-17T04:23:36;100844.13;;;0.33;80.77
33697;BME280;20031;43.416;23.232;2023-02-17T04:26:06;100842.31;;;0.35;81.09
33697;BME280;20031;43.416;23.232;2023-02-17T04:28:31;100854.06;;;0.39;81.20
33697;BME280;20031;43.416;23.232;2023-02-17T04:30:58;100846.38;;;0.39;81.61
33697;BME280;20031;43.416;23.232;2023-02-17T04:33:24;100857.28;;;0.42;81.39
33697;BME280;20031;43.416;23.232;2023-02-17T04:35:49;100855.50;;;0.44;81.64
33697;BME280;20031;43.416;23.232;2023-02-17T04:38:15;100861.06;;;0.52;81.48
33697;BME280;20031;43.416;23.232;2023-02-17T04:40:42;100856.72;;;0.54;81.83
33697;BME280;20031;43.416;23.232;2023-02-17T04:43:07;100857.91;;;0.64;82.09
33697;BME280;20031;43.416;23.232;2023-02-17T04:45:36;100857.50;;;0.71;81.65
33697;BME280;20031;43.416;23.232;2023-02-17T04:48:02;100853.88;;;0.75;81.79
33697;BME280;20031;43.416;23.232;2023-02-17T04:50:28;100849.34;;;0.80;81.98
33697;BME280;20031;43.416;23.232;2023-02-17T04:52:54;100854.88;;;1.05;82.51
33697;BME280;20031;43.416;23.232;2023-02-17T04:55:19;100857.03;;;1.12;82.55
33697;BME280;20031;43.416;23.232;2023-02-17T04:57:44;100856.25;;;1.10;81.94
33697;BME280;20031;43.416;23.232;2023-02-17T05:00:10;100865.94;;;1.05;81.88
33697;BME280;20031;43.416;23.232;2023-02-17T05:02:36;100868.91;;;0.98;81.84
33697;BME280;20031;43.416;23.232;2023-02-17T05:05:02;100868.78;;;0.84;81.49
33697;BME280;20031;43.416;23.232;2023-02-17T05:07:27;100869.75;;;0.82;82.25
33697;BME280;20031;43.416;23.232;2023-02-17T05:09:53;100867.34;;;0.79;81.90
33697;BME280;20031;43.416;23.232;2023-02-17T05:12:18;100878.16;;;0.85;82.44
33697;BME280;20031;43.416;23.232;2023-02-17T05:14:44;100871.28;;;0.86;82.41
33697;BME280;20031;43.416;23.232;2023-02-17T05:17:09;100866.50;;;0.95;82.94
33697;BME280;20031;43.416;23.232;2023-02-17T05:19:35;100870.50;;;1.16;83.48
33697;BME280;20031;43.416;23.232;2023-02-17T05:22:00;100880.78;;;1.31;83.32
33697;BME280;20031;43.416;23.232;2023-02-17T05:24:26;100881.22;;;1.24;82.71
33697;BME280;20031;43.416;23.232;2023-02-17T05:26:51;100885.97;;;1.14;82.09
33697;BME280;20031;43.416;23.232;2023-02-17T05:29:17;100885.81;;;1.02;81.97
33697;BME280;20031;43.416;23.232;2023-02-17T05:31:42;100896.66;;;0.90;82.25
33697;BME280;20031;43.416;23.232;2023-02-17T05:34:08;100898.72;;;0.84;81.98
33697;BME280;20031;43.416;23.232;2023-02-17T05:36:33;100901.00;;;0.73;81.96
33697;BME280;20031;43.416;23.232;2023-02-17T05:38:58;100897.88;;;0.66;81.68
33697;BME280;20031;43.416;23.232;2023-02-17T05:41:24;100906.50;;;0.65;82.42
33697;BME280;20031;43.416;23.232;2023-02-17T05:43:49;100907.47;;;0.63;82.29
33697;BME280;20031;43.416;23.232;2023-02-17T05:46:15;100906.66;;;0.62;82.51
33697;BME280;20031;43.416;23.232;2023-02-17T05:48:40;100913.25;;;0.66;82.37
33697;BME280;20031;43.416;23.232;2023-02-17T05:51:06;100908.13;;;0.66;82.06
33697;BME280;20031;43.416;23.232;2023-02-17T05:53:32;100913.97;;;0.70;81.84
33697;BME280;20031;43.416;23.232;2023-02-17T05:55:57;100918.03;;;0.74;82.11
33697;BME280;20031;43.416;23.232;2023-02-17T05:58:23;100931.44;;;0.79;82.53
33697;BME280;20031;43.416;23.232;2023-02-17T06:00:48;100928.72;;;0.82;82.06
33697;BME280;20031;43.416;23.232;2023-02-17T06:03:14;100942.06;;;0.88;82.12
33697;BME280;20031;43.416;23.232;2023-02-17T06:05:40;100938.28;;;0.95;82.04
33697;BME280;20031;43.416;23.232;2023-02-17T06:08:06;100933.44;;;1.06;82.32
33697;BME280;20031;43.416;23.232;2023-02-17T06:10:31;100930.09;;;1.21;82.25
33697;BME280;20031;43.416;23.232;2023-02-17T06:12:57;100942.47;;;1.45;82.55
33697;BME280;20031;43.416;23.232;2023-02-17T06:15:22;100932.47;;;1.71;82.41
33697;BME280;20031;43.416;23.232;2023-02-17T06:17:48;100934.41;;;1.99;82.04
33697;BME280;20031;43.416;23.232;2023-02-17T06:20:14;100937.94;;;2.27;81.85
33697;BME280;20031;43.416;23.232;2023-02-17T06:22:40;100939.13;;;2.51;81.70
33697;BME280;20031;43.416;23.232;2023-02-17T06:25:05;100934.78;;;2.80;81.35
33697;BME280;20031;43.416;23.232;2023-02-17T06:27:31;100937.25;;;3.11;80.82
33697;BME280;20031;43.416;23.232;2023-02-17T06:29:56;100944.06;;;3.53;80.55
33697;BME280;20031;43.416;23.232;2023-02-17T06:32:22;100944.09;;;3.94;80.08
33697;BME280;20031;43.416;23.232;2023-02-17T06:34:47;100931.03;;;4.23;77.97
33697;BME280;20031;43.416;23.232;2023-02-17T06:37:13;100934.94;;;4.54;76.57
33697;BME280;20031;43.416;23.232;2023-02-17T06:39:38;100937.38;;;4.82;74.89
33697;BME280;20031;43.416;23.232;2023-02-17T06:42:04;100940.19;;;5.04;72.36
33697;BME280;20031;43.416;23.232;2023-02-17T06:44:29;100936.88;;;5.27;70.28
33697;BME280;20031;43.416;23.232;2023-02-17T06:46:55;100929.34;;;5.49;68.57
33697;BME280;20031;43.416;23.232;2023-02-17T06:49:21;100936.03;;;5.63;66.85
33697;BME280;20031;43.416;23.232;2023-02-17T06:51:46;100938.81;;;5.73;66.33
33697;BME280;20031;43.416;23.232;2023-02-17T06:54:12;100933.03;;;5.69;65.46
33697;BME280;20031;43.416;23.232;2023-02-17T06:56:37;100941.38;;;5.73;65.49
33697;BME280;20031;43.416;23.232;2023-02-17T06:59:02;100937.69;;;5.89;65.39
33697;BME280;20031;43.416;23.232;2023-02-17T07:01:28;100942.88;;;6.00;64.85
33697;BME280;20031;43.416;23.232;2023-02-17T07:03:54;100947.25;;;6.23;63.84
33697;BME280;20031;43.416;23.232;2023-02-17T07:06:21;100949.34;;;6.41;64.26
33697;BME280;20031;43.416;23.232;2023-02-17T07:08:47;100940.16;;;6.60;63.08
33697;BME280;20031;43.416;23.232;2023-02-17T07:11:14;100938.94;;;6.88;62.41
33697;BME280;20031;43.416;23.232;2023-02-17T07:13:40;100938.28;;;7.08;61.16
33697;BME280;20031;43.416;23.232;2023-02-17T07:16:06;100949.28;;;7.33;60.78
33697;BME280;20031;43.416;23.232;2023-02-17T07:18:32;100939.50;;;7.47;60.47
33697;BME280;20031;43.416;23.232;2023-02-17T07:20:58;100936.56;;;7.73;59.70
33697;BME280;20031;43.416;23.232;2023-02-17T07:23:23;100937.22;;;7.97;58.22
33697;BME280;20031;43.416;23.232;2023-02-17T07:25:49;100939.34;;;8.03;56.66
33697;BME280;20031;43.416;23.232;2023-02-17T07:28:14;100944.75;;;8.11;56.47
33697;BME280;20031;43.416;23.232;2023-02-17T07:30:40;100947.50;;;8.52;56.02
33697;BME280;20031;43.416;23.232;2023-02-17T07:33:06;100944.28;;;8.79;55.64
33697;BME280;20031;43.416;23.232;2023-02-17T07:35:33;100938.16;;;9.21;54.87
33697;BME280;20031;43.416;23.232;2023-02-17T07:37:59;100940.66;;;9.52;53.78
33697;BME280;20031;43.416;23.232;2023-02-17T07:40:25;100937.31;;;9.80;53.23
33697;BME280;20031;43.416;23.232;2023-02-17T07:42:51;100939.75;;;10.11;52.42
33697;BME280;20031;43.416;23.232;2023-02-17T07:45:17;100935.16;;;10.33;51.66
33697;BME280;20031;43.416;23.232;2023-02-17T07:47:42;100933.81;;;10.67;51.60
33697;BME280;20031;43.416;23.232;2023-02-17T07:50:08;100931.47;;;10.92;50.77
33697;BME280;20031;43.416;23.232;2023-02-17T07:52:34;100937.44;;;11.12;49.49
33697;BME280;20031;43.416;23.232;2023-02-17T07:55:00;100943.28;;;11.42;48.42
33697;BME280;20031;43.416;23.232;2023-02-17T07:57:25;100927.16;;;11.92;46.05
33697;BME280;20031;43.416;23.232;2023-02-17T07:59:51;100926.91;;;12.81;41.36
33697;BME280;20031;43.416;23.232;2023-02-17T08:02:17;100930.78;;;13.37;38.44
33697;BME280;20031;43.416;23.232;2023-02-17T08:04:42;100929.63;;;14.06;35.73
33697;BME280;20031;43.416;23.232;2023-02-17T08:07:08;100936.97;;;14.52;34.50
33697;BME280;20031;43.416;23.232;2023-02-17T08:09:33;100931.59;;;14.93;33.03
33697;BME280;20031;43.416;23.232;2023-02-17T08:12:19;100938.94;;;15.29;31.74
33697;BME280;20031;43.416;23.232;2023-02-17T08:15:05;100940.53;;;15.54;30.39
33697;BME280;20031;43.416;23.232;2023-02-17T08:17:31;100937.97;;;15.76;30.16
33697;BME280;20031;43.416;23.232;2023-02-17T08:19:57;100939.09;;;15.89;29.54
33697;BME280;20031;43.416;23.232;2023-02-17T08:22:23;100943.66;;;15.95;28.95
33697;BME280;20031;43.416;23.232;2023-02-17T08:24:48;100944.66;;;15.94;28.95
33697;BME280;20031;43.416;23.232;2023-02-17T08:27:15;100951.91;;;15.92;29.07
33697;BME280;20031;43.416;23.232;2023-02-17T08:29:42;100952.53;;;15.94;28.80
33697;BME280;20031;43.416;23.232;2023-02-17T08:32:08;100947.09;;;15.96;28.40
33697;BME280;20031;43.416;23.232;2023-02-17T08:34:33;100984.50;;;16.06;28.43
33697;BME280;20031;43.416;23.232;2023-02-17T08:37:00;100953.94;;;16.13;28.17
33697;BME280;20031;43.416;23.232;2023-02-17T08:39:26;100960.78;;;16.22;28.36
33697;BME280;20031;43.416;23.232;2023-02-17T08:41:52;100964.56;;;16.27;28.17
33697;BME280;20031;43.416;23.232;2023-02-17T08:44:18;100968.84;;;16.28;27.98
33697;BME280;20031;43.416;23.232;2023-02-17T08:46:45;100965.84;;;16.31;28.09
33697;BME280;20031;43.416;23.232;2023-02-17T08:49:14;100966.00;;;16.37;27.70
33697;BME280;20031;43.416;23.232;2023-02-17T08:51:40;100969.84;;;16.49;27.95
33697;BME280;20031;43.416;23.232;2023-02-17T08:54:07;100967.41;;;16.48;27.59
33697;BME280;20031;43.416;23.232;2023-02-17T08:56:35;100960.81;;;16.52;27.75
33697;BME280;20031;43.416;23.232;2023-02-17T08:59:01;100956.78;;;16.64;28.20
33697;BME280;20031;43.416;23.232;2023-02-17T09:01:27;100966.31;;;16.65;28.29
33697;BME280;20031;43.416;23.232;2023-02-17T09:03:53;100966.75;;;16.68;27.66
33697;BME280;20031;43.416;23.232;2023-02-17T09:06:20;100966.22;;;16.73;27.75
33697;BME280;20031;43.416;23.232;2023-02-17T09:08:46;100962.25;;;16.77;27.77
33697;BME280;20031;43.416;23.232;2023-02-17T09:11:11;100957.00;;;16.77;27.63
33697;BME280;20031;43.416;23.232;2023-02-17T09:13:39;100958.44;;;16.87;27.99
33697;BME280;20031;43.416;23.232;2023-02-17T09:16:05;100961.72;;;17.03;28.01
33697;BME280;20031;43.416;23.232;2023-02-17T09:18:30;100967.75;;;17.12;27.61
33697;BME280;20031;43.416;23.232;2023-02-17T09:20:56;100964.13;;;17.13;27.31
33697;BME280;20031;43.416;23.232;2023-02-17T09:23:22;100970.44;;;17.26;27.62
33697;BME280;20031;43.416;23.232;2023-02-17T09:25:48;100960.81;;;17.33;27.43
33697;BME280;20031;43.416;23.232;2023-02-17T09:28:13;100975.28;;;17.37;27.04
33697;BME280;20031;43.416;23.232;2023-02-17T09:30:40;100967.81;;;17.40;26.59
33697;BME280;20031;43.416;23.232;2023-02-17T09:33:05;100966.66;;;17.43;27.06
33697;BME280;20031;43.416;23.232;2023-02-17T09:35:31;100964.31;;;17.48;27.02
33697;BME280;20031;43.416;23.232;2023-02-17T09:37:57;100971.19;;;17.49;26.94
33697;BME280;20031;43.416;23.232;2023-02-17T09:43:00;100960.84;;;17.47;26.47
33697;BME280;20031;43.416;23.232;2023-02-17T09:45:31;100967.56;;;17.50;26.50
33697;BME280;20031;43.416;23.232;2023-02-17T09:48:02;100966.22;;;17.54;26.85
33697;BME280;20031;43.416;23.232;2023-02-17T09:50:55;100964.50;;;17.61;27.11
33697;BME280;20031;43.416;23.232;2023-02-17T09:53:36;100962.50;;;17.63;27.14
33697;BME280;20031;43.416;23.232;2023-02-17T09:56:07;100958.75;;;17.72;26.89
33697;BME280;20031;43.416;23.232;2023-02-17T09:58:57;100970.56;;;17.90;27.40
33697;BME280;20031;43.416;23.232;2023-02-17T10:01:28;100957.38;;;18.04;26.91
33697;BME280;20031;43.416;23.232;2023-02-17T10:04:21;100962.56;;;18.12;26.54
33697;BME280;20031;43.416;23.232;2023-02-17T10:06:53;100962.56;;;18.12;26.53
33697;BME280;20031;43.416;23.232;2023-02-17T10:09:33;100960.56;;;18.29;26.76
33697;BME280;20031;43.416;23.232;2023-02-17T10:12:12;100960.75;;;18.27;26.31
33697;BME280;20031;43.416;23.232;2023-02-17T10:14:47;100968.47;;;18.29;26.61
33697;BME280;20031;43.416;23.232;2023-02-17T10:19:55;100947.03;;;18.17;26.22
33697;BME280;20031;43.416;23.232;2023-02-17T10:22:23;100945.28;;;18.24;26.42
33697;BME280;20031;43.416;23.232;2023-02-17T10:24:49;100944.56;;;18.30;26.28
33697;BME280;20031;43.416;23.232;2023-02-17T10:27:29;100953.94;;;18.18;26.20
33697;BME280;20031;43.416;23.232;2023-02-17T10:30:07;100948.38;;;18.28;26.19
33697;BME280;20031;43.416;23.232;2023-02-17T10:35:30;100940.56;;;18.20;26.75
33697;BME280;20031;43.416;23.232;2023-02-17T10:41:01;100918.72;;;18.11;26.41
33697;BME280;20031;43.416;23.232;2023-02-17T10:43:30;100918.66;;;18.19;27.25
33697;BME280;20031;43.416;23.232;2023-02-17T10:45:58;100916.63;;;18.36;26.74
33697;BME280;20031;43.416;23.232;2023-02-17T10:51:28;100907.19;;;18.12;26.23
33697;BME280;20031;43.416;23.232;2023-02-17T10:54:41;100908.09;;;18.19;26.06
33697;BME280;20031;43.416;23.232;2023-02-17T10:56:50;100907.06;;;18.35;26.95
33697;BME280;20031;43.416;23.232;2023-02-17T10:59:23;100896.06;;;18.31;26.13
33697;BME280;20031;43.416;23.232;2023-02-17T11:01:50;100893.41;;;18.31;26.36
33697;BME280;20031;43.416;23.232;2023-02-17T11:04:16;100893.59;;;18.30;26.63
33697;BME280;20031;43.416;23.232;2023-02-17T11:06:50;100889.88;;;18.24;26.37
33697;BME280;20031;43.416;23.232;2023-02-17T11:11:50;100876.09;;;18.22;26.37
33697;BME280;20031;43.416;23.232;2023-02-17T11:14:19;100883.75;;;18.17;26.34
33697;BME280;20031;43.416;23.232;2023-02-17T11:16:53;100880.81;;;18.12;26.94
33697;BME280;20031;43.416;23.232;2023-02-17T11:19:26;100880.94;;;18.19;27.17
33697;BME280;20031;43.416;23.232;2023-02-17T11:21:53;100877.25;;;18.20;27.43
33697;BME280;20031;43.416;23.232;2023-02-17T11:24:19;100878.09;;;18.20;27.50
33697;BME280;20031;43.416;23.232;2023-02-17T11:27:01;100865.66;;;18.35;27.21
33697;BME280;20031;43.416;23.232;2023-02-17T11:29:28;100872.81;;;18.41;27.11
33697;BME280;20031;43.416;23.232;2023-02-17T11:32:09;100871.72;;;18.50;26.68
33697;BME280;20031;43.416;23.232;2023-02-17T11:34:39;100867.44;;;18.49;26.73
33697;BME280;20031;43.416;23.232;2023-02-17T11:39:45;100863.38;;;18.74;26.86
33697;BME280;20031;43.416;23.232;2023-02-17T11:42:15;100865.66;;;18.77;26.83
33697;BME280;20031;43.416;23.232;2023-02-17T11:44:41;100853.84;;;18.73;26.38
33697;BME280;20031;43.416;23.232;2023-02-17T11:55:39;100841.53;;;18.59;26.84
33697;BME280;20031;43.416;23.232;2023-02-17T12:01:27;100833.16;;;18.76;27.33
33697;BME280;20031;43.416;23.232;2023-02-17T12:07:05;100827.34;;;18.39;26.25
33697;BME280;20031;43.416;23.232;2023-02-17T12:09:59;100817.31;;;18.28;26.90
33697;BME280;20031;43.416;23.232;2023-02-17T12:12:32;100815.38;;;18.16;27.09
33697;BME280;20031;43.416;23.232;2023-02-17T12:23:30;100815.25;;;17.88;26.91
33697;BME280;20031;43.416;23.232;2023-02-17T12:32:09;100809.00;;;17.40;26.10
33697;BME280;20031;43.416;23.232;2023-02-17T12:34:43;100810.25;;;17.44;26.60
33697;BME280;20031;43.416;23.232;2023-02-17T12:37:21;100808.72;;;17.49;26.72
33697;BME280;20031;43.416;23.232;2023-02-17T12:42:34;100804.81;;;17.45;26.86
33697;BME280;20031;43.416;23.232;2023-02-17T12:45:09;100792.63;;;17.44;26.74
33697;BME280;20031;43.416;23.232;2023-02-17T12:52:49;100789.28;;;17.36;26.14
33697;BME280;20031;43.416;23.232;2023-02-17T12:55:21;100794.91;;;17.33;26.50
33697;BME280;20031;43.416;23.232;2023-02-17T13:03:01;100793.81;;;17.28;26.53
33697;BME280;20031;43.416;23.232;2023-02-17T13:05:41;100795.03;;;17.25;26.41
33697;BME280;20031;43.416;23.232;2023-02-17T13:10:39;100805.56;;;17.25;26.07
33697;BME280;20031;43.416;23.232;2023-02-17T13:13:29;100805.09;;;17.22;26.14
33697;BME280;20031;43.416;23.232;2023-02-17T13:16:09;100802.97;;;17.17;26.15
33697;BME280;20031;43.416;23.232;2023-02-17T13:18:37;100802.19;;;17.17;26.43
33697;BME280;20031;43.416;23.232;2023-02-17T13:23:58;100792.16;;;17.12;26.72
33697;BME280;20031;43.416;23.232;2023-02-17T13:26:34;100776.31;;;17.06;26.72
33697;BME280;20031;43.416;23.232;2023-02-17T13:31:54;100779.75;;;17.06;26.93
33697;BME280;20031;43.416;23.232;2023-02-17T13:34:33;100771.22;;;17.04;27.65
33697;BME280;20031;43.416;23.232;2023-02-17T13:37:02;100770.84;;;17.07;27.54
33697;BME280;20031;43.416;23.232;2023-02-17T13:39:39;100774.84;;;17.03;27.73
33697;BME280;20031;43.416;23.232;2023-02-17T13:44:56;100778.94;;;17.06;27.64
33697;BME280;20031;43.416;23.232;2023-02-17T13:47:35;100774.75;;;17.11;27.38
33697;BME280;20031;43.416;23.232;2023-02-17T13:50:03;100779.84;;;17.13;27.07
33697;BME280;20031;43.416;23.232;2023-02-17T13:52:30;100782.09;;;17.16;27.54
33697;BME280;20031;43.416;23.232;2023-02-17T13:55:01;100784.56;;;17.17;27.52
33697;BME280;20031;43.416;23.232;2023-02-17T14:00:20;100773.03;;;17.18;27.57
33697;BME280;20031;43.416;23.232;2023-02-17T14:03:34;100774.66;;;17.19;27.65
33697;BME280;20031;43.416;23.232;2023-02-17T14:06:01;100774.47;;;17.21;27.69
33697;BME280;20031;43.416;23.232;2023-02-17T14:08:33;100775.28;;;17.21;27.93
33697;BME280;20031;43.416;23.232;2023-02-17T14:11:14;100771.03;;;17.20;27.83
33697;BME280;20031;43.416;23.232;2023-02-17T14:13:43;100771.03;;;17.20;28.09
33697;BME280;20031;43.416;23.232;2023-02-17T14:19:07;100756.53;;;17.24;28.26
33697;BME280;20031;43.416;23.232;2023-02-17T14:21:35;100760.16;;;17.23;28.18
33697;BME280;20031;43.416;23.232;2023-02-17T14:24:01;100757.34;;;17.25;28.28
33697;BME280;20031;43.416;23.232;2023-02-17T14:29:10;100765.50;;;17.30;27.87
33697;BME280;20031;43.416;23.232;2023-02-17T14:31:42;100760.63;;;17.27;27.65
33697;BME280;20031;43.416;23.232;2023-02-17T14:34:34;100756.16;;;17.27;27.33
33697;BME280;20031;43.416;23.232;2023-02-17T14:37:22;100768.72;;;17.25;27.49
33697;BME280;20031;43.416;23.232;2023-02-17T14:39:48;100773.31;;;17.23;27.72
33697;BME280;20031;43.416;23.232;2023-02-17T14:42:13;100771.81;;;17.21;27.68
33697;BME280;20031;43.416;23.232;2023-02-17T14:44:39;100771.81;;;17.21;27.79
33697;BME280;20031;43.416;23.232;2023-02-17T14:47:05;100776.66;;;17.17;27.93